createdAt,value
2018-08-16T00:00:13.168Z,17.60
2018-08-16T00:03:17.397Z,17.50
2018-08-16T00:06:21.616Z,17.50
2018-08-16T00:09:26.794Z,17.40
2018-08-16T00:12:31.009Z,17.40
2018-08-16T00:15:35.251Z,17.40
2018-08-16T00:18:39.476Z,17.30
2018-08-16T00:21:43.727Z,17.30
2018-08-16T00:24:47.944Z,17.30
2018-08-16T00:27:52.156Z,17.20
2018-08-16T00:30:56.404Z,17.20
2018-08-16T00:34:00.585Z,17.20
2018-08-16T00:37:04.800Z,17.20
2018-08-16T00:40:12.030Z,17.20
2018-08-16T00:43:16.292Z,17.10
2018-08-16T00:46:20.514Z,17.10
2018-08-16T00:49:24.784Z,17.10
2018-08-16T00:52:29.046Z,17.00
2018-08-16T00:55:33.277Z,17.00
2018-08-16T00:58:37.525Z,17.00
2018-08-16T01:01:41.733Z,17.00
2018-08-16T01:04:45.989Z,16.90
2018-08-16T01:07:50.214Z,17.00
2018-08-16T01:10:54.489Z,17.00
2018-08-16T01:13:58.725Z,16.90
2018-08-16T01:17:02.936Z,16.90
2018-08-16T01:20:07.573Z,16.90
2018-08-16T01:23:11.798Z,16.90
2018-08-16T01:26:16.069Z,16.90
2018-08-16T01:29:20.278Z,17.00
2018-08-16T01:32:24.540Z,17.00
2018-08-16T01:35:28.769Z,17.00
2018-08-16T01:38:33.038Z,17.00
2018-08-16T01:41:37.604Z,17.00
2018-08-16T01:44:41.856Z,17.00
2018-08-16T01:47:46.058Z,17.00
2018-08-16T01:50:50.300Z,17.00
2018-08-16T01:53:54.538Z,17.10
2018-08-16T01:56:59.628Z,17.10
2018-08-16T02:00:05.612Z,17.10
2018-08-16T02:03:09.837Z,17.10
2018-08-16T02:06:14.118Z,17.10
2018-08-16T02:09:18.393Z,17.20
2018-08-16T02:12:22.628Z,17.20
2018-08-16T02:15:26.853Z,17.20
2018-08-16T02:18:32.197Z,17.20
2018-08-16T02:21:37.305Z,17.20
2018-08-16T02:24:41.910Z,17.10
2018-08-16T02:27:46.476Z,17.10
2018-08-16T02:30:51.068Z,17.10
2018-08-16T02:33:55.861Z,17.10
2018-08-16T02:37:00.103Z,17.00
2018-08-16T02:40:04.820Z,17.00
2018-08-16T02:43:09.061Z,17.10
2018-08-16T02:46:13.317Z,17.10
2018-08-16T02:49:17.553Z,17.10
2018-08-16T02:52:21.785Z,17.00
2018-08-16T02:55:26.033Z,17.00
2018-08-16T02:58:30.280Z,17.00
2018-08-16T03:01:34.538Z,16.90
2018-08-16T03:04:38.784Z,16.90
2018-08-16T03:07:43.153Z,16.90
2018-08-16T03:10:47.377Z,16.90
2018-08-16T03:13:51.612Z,16.90
2018-08-16T03:16:56.041Z,16.90
2018-08-16T03:20:01.686Z,16.90
2018-08-16T03:23:05.992Z,16.90
2018-08-16T03:26:10.222Z,16.90
2018-08-16T03:29:14.557Z,16.90
2018-08-16T03:32:18.819Z,16.90
2018-08-16T03:35:23.089Z,16.90
2018-08-16T03:38:27.421Z,17.00
2018-08-16T03:41:31.688Z,17.00
2018-08-16T03:44:37.250Z,17.10
2018-08-16T03:47:42.223Z,17.00
2018-08-16T03:50:47.026Z,17.10
2018-08-16T03:53:52.060Z,17.20
2018-08-16T03:56:57.696Z,17.20
2018-08-16T04:00:02.929Z,17.20
2018-08-16T04:03:08.035Z,17.30
2018-08-16T04:06:12.933Z,17.30
2018-08-16T04:09:17.929Z,17.30
2018-08-16T04:12:23.313Z,17.30
2018-08-16T04:15:28.393Z,17.30
2018-08-16T04:18:32.693Z,17.40
2018-08-16T04:21:36.929Z,17.40
2018-08-16T04:24:41.146Z,17.40
2018-08-16T04:27:45.406Z,17.50
2018-08-16T04:30:49.670Z,17.50
2018-08-16T04:33:53.897Z,17.50
2018-08-16T04:36:58.140Z,17.60
2018-08-16T04:40:02.393Z,17.60
2018-08-16T04:43:06.897Z,17.60
2018-08-16T04:46:11.134Z,17.60
2018-08-16T04:49:15.382Z,17.60
2018-08-16T04:52:19.673Z,17.60
2018-08-16T04:55:23.905Z,17.60
2018-08-16T04:58:28.161Z,17.70
2018-08-16T05:01:32.360Z,17.70
2018-08-16T05:04:36.621Z,17.70
2018-08-16T05:07:40.875Z,17.80
2018-08-16T05:10:45.110Z,17.80
2018-08-16T05:13:49.313Z,17.80
2018-08-16T05:16:53.594Z,17.80
2018-08-16T05:19:57.841Z,17.90
2018-08-16T05:23:02.081Z,17.90
2018-08-16T05:26:07.135Z,17.90
2018-08-16T05:29:12.386Z,17.90
2018-08-16T05:32:17.242Z,17.90
2018-08-16T05:35:22.545Z,18.00
2018-08-16T05:38:27.623Z,18.00
2018-08-16T05:41:32.009Z,18.00
2018-08-16T05:44:36.207Z,18.00
2018-08-16T05:47:41.161Z,18.10
2018-08-16T05:50:46.349Z,18.10
2018-08-16T05:53:51.022Z,18.20
2018-08-16T05:56:55.674Z,18.20
2018-08-16T06:00:01.513Z,18.30
2018-08-16T06:03:06.119Z,18.30
2018-08-16T06:06:10.780Z,18.30
2018-08-16T06:09:16.026Z,18.40
2018-08-16T06:12:21.610Z,18.50
2018-08-16T06:15:26.125Z,18.70
2018-08-16T06:18:32.682Z,18.80
2018-08-16T06:21:38.269Z,18.90
2018-08-16T06:24:43.957Z,18.90
2018-08-16T06:27:49.457Z,18.90
2018-08-16T06:30:53.790Z,18.90
2018-08-16T06:33:58.379Z,19.00
2018-08-16T06:37:02.689Z,19.00
2018-08-16T06:40:11.957Z,18.90
2018-08-16T06:43:16.302Z,19.00
2018-08-16T06:46:20.670Z,19.00
2018-08-16T06:49:24.940Z,19.10
2018-08-16T06:52:29.271Z,19.10
2018-08-16T06:55:33.528Z,19.20
2018-08-16T06:58:37.810Z,19.20
2018-08-16T07:01:42.023Z,19.20
2018-08-16T07:04:46.356Z,19.30
2018-08-16T07:07:50.629Z,19.30
2018-08-16T07:10:54.885Z,19.40
2018-08-16T07:13:59.996Z,19.50
2018-08-16T07:17:04.715Z,19.70
2018-08-16T07:20:10.253Z,19.80
2018-08-16T07:23:15.395Z,20.00
2018-08-16T07:26:20.388Z,20.00
2018-08-16T07:29:25.243Z,20.00
2018-08-16T07:32:30.801Z,20.10
2018-08-16T07:35:36.534Z,20.20
2018-08-16T07:38:41.260Z,20.40
2018-08-16T07:41:46.060Z,20.40
2018-08-16T07:44:51.329Z,20.50
2018-08-16T07:47:55.861Z,20.60
2018-08-16T07:51:01.159Z,20.70
2018-08-16T07:54:06.327Z,20.80
2018-08-16T07:57:11.962Z,20.80
2018-08-16T08:00:19.679Z,20.80
2018-08-16T08:03:24.569Z,21.00
2018-08-16T08:06:29.358Z,21.00
2018-08-16T08:09:34.733Z,21.10
2018-08-16T08:12:38.982Z,21.10
2018-08-16T08:15:43.264Z,21.10
2018-08-16T08:18:47.521Z,21.00
2018-08-16T08:21:51.760Z,20.90
2018-08-16T08:24:55.996Z,20.90
2018-08-16T08:28:00.265Z,21.20
2018-08-16T08:31:04.545Z,21.40
2018-08-16T08:34:08.806Z,21.60
2018-08-16T08:37:30.140Z,21.50
2018-08-16T08:40:34.360Z,21.40
2018-08-16T08:43:55.679Z,21.40
2018-08-16T08:46:59.922Z,21.50
2018-08-16T08:50:04.177Z,21.50
2018-08-16T08:53:25.561Z,21.60
2018-08-16T08:56:46.937Z,21.60
2018-08-16T08:59:51.168Z,21.70
2018-08-16T09:02:55.452Z,21.80
2018-08-16T09:05:59.688Z,21.90
2018-08-16T09:09:04.107Z,21.90
2018-08-16T09:12:25.513Z,22.00
2018-08-16T09:15:46.343Z,22.10
2018-08-16T09:18:50.601Z,22.30
2018-08-16T09:21:54.833Z,22.50
2018-08-16T09:24:59.093Z,22.70
2018-08-16T09:28:03.330Z,22.90
2018-08-16T09:31:25.323Z,22.90
2018-08-16T09:34:29.560Z,22.70
2018-08-16T09:37:37.679Z,22.50
2018-08-16T09:40:41.934Z,22.50
2018-08-16T09:43:46.204Z,22.50
2018-08-16T09:47:09.404Z,22.50
2018-08-16T09:50:13.677Z,22.60
2018-08-16T09:53:17.976Z,22.70
2018-08-16T09:56:22.254Z,22.80
2018-08-16T09:59:27.478Z,22.80
2018-08-16T10:02:31.928Z,23.00
2018-08-16T10:05:36.342Z,22.90
2018-08-16T10:08:40.727Z,22.80
2018-08-16T10:11:46.103Z,22.80
2018-08-16T10:14:50.913Z,22.90
2018-08-16T10:17:55.881Z,23.10
2018-08-16T10:21:00.380Z,23.20
2018-08-16T10:24:04.949Z,23.20
2018-08-16T10:27:09.287Z,23.00
2018-08-16T10:30:13.555Z,23.00
2018-08-16T10:33:17.832Z,23.00
2018-08-16T10:36:22.138Z,23.10
2018-08-16T10:39:26.489Z,23.00
2018-08-16T10:42:30.714Z,23.10
2018-08-16T10:45:34.952Z,23.20
2018-08-16T10:48:39.194Z,23.30
2018-08-16T10:51:43.468Z,23.20
2018-08-16T10:54:47.722Z,23.20
2018-08-16T10:57:51.961Z,23.30
2018-08-16T11:00:56.197Z,23.40
2018-08-16T11:04:00.457Z,23.60
2018-08-16T11:07:04.823Z,23.50
2018-08-16T11:10:09.074Z,23.30
2018-08-16T11:13:13.329Z,23.50
2018-08-16T11:16:17.577Z,23.50
2018-08-16T11:19:21.832Z,23.40
2018-08-16T11:22:26.045Z,23.10
2018-08-16T11:25:30.264Z,23.30
2018-08-16T11:28:34.469Z,23.30
2018-08-16T11:31:38.713Z,23.20
2018-08-16T11:34:42.921Z,23.00
2018-08-16T11:37:47.153Z,23.10
2018-08-16T11:40:51.415Z,23.10
2018-08-16T11:43:55.650Z,23.10
2018-08-16T11:46:59.849Z,23.00
2018-08-16T11:50:04.433Z,23.10
2018-08-16T11:53:08.668Z,23.10
2018-08-16T11:56:12.941Z,23.20
2018-08-16T11:59:17.161Z,23.30
2018-08-16T12:02:21.420Z,23.20
2018-08-16T12:05:25.669Z,23.20
2018-08-16T12:08:29.913Z,23.30
2018-08-16T12:11:34.137Z,23.20
2018-08-16T12:14:38.381Z,23.20
2018-08-16T12:17:42.589Z,23.00
2018-08-16T12:20:46.789Z,23.10
2018-08-16T12:23:51.015Z,23.10
2018-08-16T12:26:55.237Z,23.20
2018-08-16T12:29:59.465Z,23.20
2018-08-16T12:33:03.684Z,23.10
2018-08-16T12:36:07.946Z,23.20
2018-08-16T12:39:12.156Z,23.30
2018-08-16T12:42:16.421Z,23.00
2018-08-16T12:45:20.660Z,22.90
2018-08-16T12:48:24.949Z,22.80
2018-08-16T12:51:29.181Z,22.90
2018-08-16T12:54:33.404Z,22.90
2018-08-16T12:57:37.643Z,22.80
2018-08-16T13:00:41.860Z,22.90
2018-08-16T13:03:46.113Z,23.00
2018-08-16T13:06:50.353Z,23.00
2018-08-16T13:09:54.577Z,23.00
2018-08-16T13:12:58.809Z,23.00
2018-08-16T13:16:03.053Z,23.00
2018-08-16T13:19:07.344Z,22.90
2018-08-16T13:22:11.591Z,23.00
2018-08-16T13:25:15.820Z,23.10
2018-08-16T13:28:20.075Z,22.90
2018-08-16T13:31:24.359Z,22.90
2018-08-16T13:34:28.536Z,23.00
2018-08-16T13:37:32.756Z,23.10
2018-08-16T13:40:36.982Z,22.80
2018-08-16T13:43:41.212Z,23.00
2018-08-16T13:46:45.433Z,23.00
2018-08-16T13:49:49.624Z,23.00
2018-08-16T13:52:53.858Z,22.90
2018-08-16T13:55:58.211Z,22.90
2018-08-16T13:59:02.456Z,22.90
2018-08-16T14:02:06.740Z,23.00
2018-08-16T14:05:11.077Z,23.10
2018-08-16T14:08:15.271Z,23.20
2018-08-16T14:11:19.493Z,23.20
2018-08-16T14:14:23.732Z,23.20
2018-08-16T14:17:27.976Z,23.30
2018-08-16T14:20:32.164Z,23.30
2018-08-16T14:23:36.410Z,23.30
2018-08-16T14:26:40.640Z,23.30
2018-08-16T14:29:44.898Z,23.30
2018-08-16T14:32:49.130Z,23.40
2018-08-16T14:35:53.377Z,23.30
2018-08-16T14:38:57.622Z,23.40
2018-08-16T14:42:02.090Z,23.30
2018-08-16T14:45:07.585Z,23.10
2018-08-16T14:48:12.405Z,23.10
2018-08-16T14:51:16.645Z,23.00
2018-08-16T14:54:20.898Z,23.10
2018-08-16T14:57:25.113Z,23.20
2018-08-16T15:00:29.360Z,23.30
2018-08-16T15:03:33.625Z,23.50
2018-08-16T15:06:37.800Z,23.50
2018-08-16T15:09:42.048Z,23.70
2018-08-16T15:12:46.341Z,23.80
2018-08-16T15:15:50.537Z,23.80
2018-08-16T15:18:54.791Z,23.70
2018-08-16T15:21:59.005Z,23.60
2018-08-16T15:25:03.249Z,23.40
2018-08-16T15:28:07.760Z,23.30
2018-08-16T15:31:11.989Z,23.20
2018-08-16T15:34:16.224Z,23.20
2018-08-16T15:37:20.486Z,23.10
2018-08-16T15:40:24.698Z,23.00
2018-08-16T15:43:28.888Z,23.00
2018-08-16T15:46:33.105Z,23.00
2018-08-16T15:49:37.385Z,23.00
2018-08-16T15:52:41.599Z,23.10
2018-08-16T15:55:45.893Z,23.10
2018-08-16T15:58:50.104Z,23.20
2018-08-16T16:01:54.357Z,23.30
2018-08-16T16:04:58.609Z,23.40
2018-08-16T16:08:02.833Z,23.60
2018-08-16T16:11:07.279Z,23.70
2018-08-16T16:14:11.541Z,23.60
2018-08-16T16:17:15.767Z,23.40
2018-08-16T16:20:20.113Z,23.30
2018-08-16T16:23:24.329Z,23.20
2018-08-16T16:26:28.622Z,23.00
2018-08-16T16:29:32.855Z,23.00
2018-08-16T16:32:37.236Z,22.90
2018-08-16T16:35:41.458Z,22.80
2018-08-16T16:38:45.677Z,22.80
2018-08-16T16:41:49.918Z,22.90
2018-08-16T16:44:54.161Z,23.00
2018-08-16T16:47:58.414Z,23.00
2018-08-16T16:51:02.622Z,23.00
2018-08-16T16:54:06.885Z,23.00
2018-08-16T16:57:11.122Z,23.00
2018-08-16T17:00:15.350Z,23.00
2018-08-16T17:03:19.554Z,22.80
2018-08-16T17:06:23.805Z,22.80
2018-08-16T17:09:28.049Z,22.70
2018-08-16T17:12:32.279Z,22.50
2018-08-16T17:15:36.515Z,22.40
2018-08-16T17:18:40.745Z,22.40
2018-08-16T17:21:44.936Z,22.40
2018-08-16T17:24:49.150Z,22.20
2018-08-16T17:27:53.412Z,22.10
2018-08-16T17:30:57.628Z,22.10
2018-08-16T17:34:02.485Z,22.10
2018-08-16T17:37:06.819Z,22.10
2018-08-16T17:40:11.072Z,22.00
2018-08-16T17:43:15.308Z,22.00
2018-08-16T17:46:19.548Z,22.00
2018-08-16T17:49:23.815Z,21.90
2018-08-16T17:52:28.761Z,21.80
2018-08-16T17:55:33.017Z,21.90
2018-08-16T17:58:37.267Z,21.90
2018-08-16T18:01:41.474Z,21.90
2018-08-16T18:04:45.745Z,21.80
2018-08-16T18:07:49.964Z,21.80
2018-08-16T18:10:54.249Z,21.80
2018-08-16T18:13:58.508Z,21.80
2018-08-16T18:17:02.769Z,21.80
2018-08-16T18:20:07.252Z,21.90
2018-08-16T18:23:11.474Z,21.80
2018-08-16T18:26:15.779Z,21.70
2018-08-16T18:29:19.981Z,21.70
2018-08-16T18:32:24.360Z,21.60
2018-08-16T18:35:28.606Z,21.50
2018-08-16T18:38:32.922Z,21.40
2018-08-16T18:41:37.740Z,21.50
2018-08-16T18:44:42.156Z,21.40
2018-08-16T18:47:46.325Z,21.30
2018-08-16T18:50:50.610Z,21.20
2018-08-16T18:53:54.934Z,21.10
2018-08-16T18:57:01.449Z,21.10
2018-08-16T19:00:07.544Z,21.00
2018-08-16T19:03:12.089Z,20.90
2018-08-16T19:06:16.645Z,20.90
2018-08-16T19:09:23.966Z,20.90
2018-08-16T19:12:28.837Z,20.80
2018-08-16T19:15:33.832Z,20.70
2018-08-16T19:18:40.693Z,20.60
2018-08-16T19:21:48.025Z,20.60
2018-08-16T19:24:52.992Z,20.40
2018-08-16T19:27:58.177Z,20.40
2018-08-16T19:31:02.485Z,20.30
2018-08-16T19:34:06.720Z,20.30
2018-08-16T19:37:10.973Z,20.10
2018-08-16T19:40:15.204Z,20.10
2018-08-16T19:43:19.481Z,20.00
2018-08-16T19:46:23.805Z,20.00
2018-08-16T19:49:31.439Z,19.90
2018-08-16T19:52:36.441Z,19.90
2018-08-16T19:55:41.424Z,19.90
2018-08-16T19:58:47.465Z,19.90
2018-08-16T20:01:52.648Z,19.80
2018-08-16T20:04:58.107Z,19.80
2018-08-16T20:08:03.348Z,19.70
2018-08-16T20:11:08.596Z,19.70
2018-08-16T20:14:13.308Z,19.60
2018-08-16T20:17:18.588Z,19.50
2018-08-16T20:20:23.698Z,19.40
2018-08-16T20:23:28.733Z,19.40
2018-08-16T20:26:34.441Z,19.30
2018-08-16T20:29:39.933Z,19.20
2018-08-16T20:32:45.464Z,19.20
2018-08-16T20:35:51.731Z,19.10
2018-08-16T20:38:57.020Z,19.10
2018-08-16T20:42:02.414Z,19.10
2018-08-16T20:45:07.641Z,19.10
2018-08-16T20:48:11.968Z,19.10
2018-08-16T20:51:16.198Z,19.00
2018-08-16T20:54:20.444Z,19.00
2018-08-16T20:57:24.752Z,19.00
2018-08-16T21:00:28.978Z,19.00
2018-08-16T21:03:33.234Z,19.00
2018-08-16T21:06:37.676Z,18.90
2018-08-16T21:09:41.887Z,18.90
2018-08-16T21:12:46.133Z,18.90
2018-08-16T21:15:50.373Z,18.90
2018-08-16T21:18:54.774Z,18.80
2018-08-16T21:21:59.026Z,18.80
2018-08-16T21:25:03.301Z,18.80
2018-08-16T21:28:07.589Z,18.80
2018-08-16T21:31:11.837Z,18.70
2018-08-16T21:34:16.105Z,18.70
2018-08-16T21:37:20.333Z,18.60
2018-08-16T21:40:24.607Z,18.50
2018-08-16T21:43:28.804Z,18.50
2018-08-16T21:46:33.065Z,18.50
2018-08-16T21:49:37.297Z,18.40
2018-08-16T21:52:41.561Z,18.40
2018-08-16T21:55:45.829Z,18.30
2018-08-16T21:58:50.057Z,18.30
2018-08-16T22:01:54.396Z,18.20
2018-08-16T22:04:58.619Z,18.20
2018-08-16T22:08:11.769Z,18.20
2018-08-16T22:11:16.034Z,18.20
2018-08-16T22:14:20.259Z,18.20
2018-08-16T22:17:24.493Z,18.20
2018-08-16T22:20:28.816Z,18.20
2018-08-16T22:23:33.040Z,18.10
2018-08-16T22:26:37.272Z,18.10
2018-08-16T22:29:41.529Z,18.00
2018-08-16T22:32:46.512Z,18.00
2018-08-16T22:35:50.769Z,18.00
2018-08-16T22:38:55.080Z,18.00
2018-08-16T22:41:59.329Z,18.00
2018-08-16T22:45:03.914Z,17.90
2018-08-16T22:48:08.413Z,17.90
2018-08-16T22:51:12.659Z,17.80
2018-08-16T22:54:16.878Z,17.80
2018-08-16T22:57:21.129Z,17.80
2018-08-16T23:00:25.373Z,17.80
2018-08-16T23:03:29.626Z,17.70
2018-08-16T23:06:33.873Z,17.70
2018-08-16T23:09:38.588Z,17.60
2018-08-16T23:12:42.900Z,17.60
2018-08-16T23:15:47.161Z,17.50
2018-08-16T23:18:51.404Z,17.40
2018-08-16T23:21:55.647Z,17.40
2018-08-16T23:24:59.909Z,17.40
2018-08-16T23:28:04.137Z,17.30
2018-08-16T23:31:08.380Z,17.30
2018-08-16T23:34:12.604Z,17.20
2018-08-16T23:37:16.841Z,17.20
2018-08-16T23:40:21.098Z,17.10
2018-08-16T23:43:25.321Z,17.10
2018-08-16T23:46:29.610Z,17.10
2018-08-16T23:49:33.850Z,17.00
2018-08-16T23:52:38.112Z,16.90
2018-08-16T23:55:42.364Z,16.80
2018-08-16T23:58:46.644Z,16.80
